This is the latest recevied weather packets stored in our database for station/object LKKU. If no packets are shown the sender has not sent any weather packets the latest 10 day(s).
| Time | Temp. | Humidity | Pressure | Rain* | Wind** | Luminosity | Snow |
|---|---|---|---|---|---|---|---|
| 1788411793 | 12.78° C | 93% | 1020 hPa | - | - | - | - |
| 1788357768 | 26.11° C | 34% | 1019 hPa | - | - | - | - |
| 1788354186 | 27.22° C | 32% | 1019 hPa | - | - | - | - |
| 1788350587 | 26.11° C | 34% | 1020 hPa | - | - | - | - |
| 1788346985 | 27.22° C | 34% | 1020 hPa | - | - | - | - |
| 1788343386 | 25° C | 41% | 1021 hPa | - | - | - | - |
| 1788341649 | 23.89° C | 44% | 1021 hPa | - | - | - | - |
| 1788339786 | 22.22° C | 49% | 1022 hPa | - | - | - | - |
| 1788336185 | 20° C | 56% | 1022 hPa | - | - | - | - |
| 1788332585 | 16.11° C | 72% | 1022 hPa | - | - | - | - |
| 1788328986 | 12.78° C | 87% | 1022 hPa | - | - | - | - |
| 1788325387 | 12.22° C | 87% | 1021 hPa | - | - | - | - |
| 1788274986 | 25° C | 33% | 1019 hPa | - | - | - | - |
| 1788271385 | 25° C | 36% | 1019 hPa | - | - | - | - |
| 1788270245 | 26.11° C | 34% | 1019 hPa | - | - | - | - |
| 1788267849 | 23.89° C | 38% | 1019 hPa | - | - | - | - |
| 1788264186 | 25° C | 38% | 1020 hPa | - | - | - | - |
| 1788263225 | 25° C | 36% | 1020 hPa | - | - | - | - |
| 1788260593 | 22.78° C | 43% | 1020 hPa | - | - | - | - |
| 1788256986 | 22.78° C | 46% | 1020 hPa | - | - | - | - |
| 1788253386 | 22.78° C | 49% | 1020 hPa | - | - | - | - |
| 1788249786 | 21.11° C | 56% | 1020 hPa | - | - | - | - |
| 1788246168 | 20° C | 64% | 1020 hPa | - | - | - | - |
| 1788242586 | 17.78° C | 77% | 1019 hPa | - | - | - | - |
| 1788238985 | 16.11° C | 87% | 1019 hPa | - | - | - | - |
* Rain since midnight (hover to see other rain measurements)
** Current wind speed in m/s (hover to see current wind gust speed)